createdAt,value
2023-04-12T00:01:11.588Z,42.20
2023-04-12T00:03:44.603Z,42.20
2023-04-12T00:06:20.349Z,42.21
2023-04-12T00:08:53.466Z,42.24
2023-04-12T00:11:26.649Z,42.41
2023-04-12T00:13:59.551Z,42.32
2023-04-12T00:16:32.752Z,42.36
2023-04-12T00:19:05.278Z,42.43
2023-04-12T00:21:38.315Z,42.37
2023-04-12T00:24:11.411Z,42.45
2023-04-12T00:26:44.612Z,42.40
2023-04-12T00:29:17.640Z,42.44
2023-04-12T00:31:50.399Z,42.51
2023-04-12T00:34:23.624Z,42.53
2023-04-12T00:36:56.718Z,42.47
2023-04-12T00:39:29.685Z,42.49
2023-04-12T00:42:02.691Z,42.59
2023-04-12T00:44:35.547Z,42.53
2023-04-12T00:47:08.533Z,42.49
2023-04-12T00:49:41.831Z,42.51
2023-04-12T00:52:15.774Z,42.54
2023-04-12T00:54:48.441Z,42.50
2023-04-12T00:57:21.616Z,42.51
2023-04-12T00:59:54.641Z,42.60
2023-04-12T01:02:27.882Z,42.59
2023-04-12T01:05:01.684Z,42.57
2023-04-12T01:07:34.677Z,42.57
2023-04-12T01:10:07.662Z,42.70
2023-04-12T01:12:40.337Z,42.57
2023-04-12T01:15:13.486Z,42.54
2023-04-12T01:17:46.719Z,42.66
2023-04-12T01:20:19.765Z,42.66
2023-04-12T01:22:52.456Z,42.62
2023-04-12T01:25:25.929Z,42.58
2023-04-12T01:27:59.720Z,42.62
2023-04-12T01:30:32.726Z,42.72
2023-04-12T01:33:05.687Z,42.78
2023-04-12T01:35:38.466Z,42.81
2023-04-12T01:38:11.694Z,42.82
2023-04-12T01:40:44.581Z,42.98
2023-04-12T01:43:17.842Z,42.91
2023-04-12T01:45:51.821Z,42.86
2023-04-12T01:48:24.565Z,42.84
2023-04-12T01:50:57.824Z,42.92
2023-04-12T01:53:30.772Z,43.06
2023-04-12T01:56:03.520Z,42.98
2023-04-12T01:58:36.708Z,43.04
2023-04-12T02:01:09.725Z,43.30
2023-04-12T02:03:42.884Z,43.25
2023-04-12T02:06:15.655Z,43.16
2023-04-12T02:08:52.635Z,43.07
2023-04-12T02:11:25.965Z,43.10
2023-04-12T02:13:59.986Z,43.18
2023-04-12T02:16:32.762Z,43.11
2023-04-12T02:19:05.765Z,43.09
2023-04-12T02:21:38.728Z,43.13
2023-04-12T02:24:11.809Z,43.03
2023-04-12T02:26:44.745Z,43.02
2023-04-12T02:29:17.864Z,43.09
2023-04-12T02:31:50.990Z,43.24
2023-04-12T02:34:24.771Z,43.17
2023-04-12T02:37:01.724Z,43.30
2023-04-12T02:39:34.868Z,43.27
2023-04-12T02:42:07.768Z,43.29
2023-04-12T02:44:40.789Z,43.24
2023-04-12T02:47:13.686Z,43.31
2023-04-12T02:49:46.766Z,43.40
2023-04-12T02:52:19.668Z,43.23
2023-04-12T02:54:52.859Z,43.01
2023-04-12T02:57:25.825Z,43.12
2023-04-12T02:59:59.011Z,43.16
2023-04-12T03:02:33.076Z,43.12
2023-04-12T03:05:05.893Z,43.14
2023-04-12T03:07:38.695Z,43.20
2023-04-12T03:10:11.807Z,43.17
2023-04-12T03:12:44.794Z,43.17
2023-04-12T03:15:17.627Z,43.19
2023-04-12T03:17:50.716Z,43.20
2023-04-12T03:20:24.056Z,43.14
2023-04-12T03:22:58.055Z,43.16
2023-04-12T03:25:45.476Z,43.14
2023-04-12T03:28:18.637Z,43.20
2023-04-12T03:30:51.923Z,43.25
2023-04-12T03:33:24.840Z,43.33
2023-04-12T03:35:57.990Z,43.32
2023-04-12T03:38:31.084Z,43.38
2023-04-12T03:41:04.587Z,43.36
2023-04-12T03:43:37.744Z,43.37
2023-04-12T03:46:16.892Z,43.40
2023-04-12T03:48:53.685Z,43.38
2023-04-12T03:51:26.728Z,43.34
2023-04-12T03:54:00.073Z,43.48
2023-04-12T03:56:33.142Z,43.39
2023-04-12T03:59:06.945Z,43.49
2023-04-12T04:01:39.759Z,43.54
2023-04-12T04:04:13.187Z,43.59
2023-04-12T04:06:46.882Z,43.48
2023-04-12T04:09:19.795Z,43.53
2023-04-12T04:11:52.959Z,43.50
2023-04-12T04:14:25.946Z,43.40
2023-04-12T04:16:59.355Z,43.42
2023-04-12T04:19:32.985Z,43.38
2023-04-12T04:22:05.648Z,43.41
2023-04-12T04:24:39.173Z,43.42
2023-04-12T04:27:12.063Z,43.37
2023-04-12T04:29:44.930Z,43.33
2023-04-12T04:32:17.632Z,43.40
2023-04-12T04:34:50.874Z,43.47
2023-04-12T04:37:23.952Z,43.33
2023-04-12T04:39:56.997Z,43.32
2023-04-12T04:42:30.183Z,43.33
2023-04-12T04:45:03.933Z,43.34
2023-04-12T04:47:37.376Z,43.42
2023-04-12T04:50:11.170Z,43.35
2023-04-12T04:52:44.933Z,43.29
2023-04-12T04:55:17.913Z,43.28
2023-04-12T04:57:50.966Z,43.31
2023-04-12T05:00:23.880Z,43.33
2023-04-12T05:02:57.154Z,43.32
2023-04-12T05:05:29.907Z,43.35
2023-04-12T05:08:03.067Z,43.36
2023-04-12T05:10:36.183Z,43.33
2023-04-12T05:13:10.095Z,43.48
2023-04-12T05:15:42.881Z,43.39
2023-04-12T05:18:15.861Z,43.33
2023-04-12T05:20:49.008Z,43.40
2023-04-12T05:23:22.088Z,43.50
2023-04-12T05:25:54.959Z,43.47
2023-04-12T05:28:27.987Z,43.35
2023-04-12T05:31:00.865Z,43.37
2023-04-12T05:33:34.083Z,43.33
2023-04-12T05:36:20.653Z,43.47
2023-04-12T05:38:54.018Z,43.40
2023-04-12T05:41:27.365Z,43.39
2023-04-12T05:44:00.953Z,43.40
2023-04-12T05:46:34.012Z,43.38
2023-04-12T05:49:20.854Z,43.45
2023-04-12T05:51:54.032Z,43.66
2023-04-12T05:54:26.910Z,43.49
2023-04-12T05:56:59.939Z,43.56
2023-04-12T05:59:32.964Z,43.42
2023-04-12T06:02:05.793Z,43.42
2023-04-12T06:04:50.325Z,43.45
2023-04-12T06:07:11.800Z,43.41
2023-04-12T06:09:44.961Z,43.44
2023-04-12T06:12:17.940Z,43.41
2023-04-12T06:14:50.884Z,43.42
2023-04-12T06:17:24.181Z,43.45
2023-04-12T06:19:57.098Z,43.48
2023-04-12T06:22:29.844Z,43.44
2023-04-12T06:25:02.818Z,43.41
2023-04-12T06:27:42.067Z,43.48
2023-04-12T06:30:14.842Z,43.44
2023-04-12T06:32:48.063Z,43.47
2023-04-12T06:35:21.066Z,43.45
2023-04-12T06:37:54.129Z,43.51
2023-04-12T06:40:27.421Z,43.56
2023-04-12T06:43:00.956Z,43.50
2023-04-12T06:45:33.888Z,43.58
2023-04-12T06:48:06.884Z,43.47
2023-04-12T06:50:40.022Z,43.53
2023-04-12T06:53:13.117Z,43.51
2023-04-12T06:55:46.056Z,43.48
2023-04-12T06:58:19.206Z,43.48
2023-04-12T07:00:51.916Z,43.53
2023-04-12T07:03:25.139Z,43.55
2023-04-12T07:06:02.139Z,43.53
2023-04-12T07:08:32.960Z,43.55
2023-04-12T07:11:19.765Z,43.58
2023-04-12T07:13:39.024Z,43.55
2023-04-12T07:16:12.315Z,43.62
2023-04-12T07:18:44.999Z,43.53
2023-04-12T07:21:18.234Z,43.55
2023-04-12T07:23:50.906Z,43.60
2023-04-12T07:26:24.002Z,43.60
2023-04-12T07:28:57.211Z,43.68
2023-04-12T07:31:30.247Z,43.66
2023-04-12T07:34:03.070Z,43.58
2023-04-12T07:36:36.007Z,43.59
2023-04-12T07:39:09.189Z,43.70
2023-04-12T07:41:42.266Z,43.59
2023-04-12T07:44:15.119Z,43.62
2023-04-12T07:46:48.260Z,43.63
2023-04-12T07:49:21.222Z,43.67
2023-04-12T07:51:53.925Z,43.61
2023-04-12T07:54:27.102Z,43.65
2023-04-12T07:57:00.111Z,43.55
2023-04-12T07:59:36.292Z,43.65
2023-04-12T08:02:09.077Z,43.71
2023-04-12T08:04:42.078Z,43.70
2023-04-12T08:07:15.149Z,43.63
2023-04-12T08:09:48.081Z,43.59
2023-04-12T08:12:21.048Z,43.56
2023-04-12T08:14:53.984Z,43.49
2023-04-12T08:17:27.179Z,43.48
2023-04-12T08:20:00.070Z,43.41
2023-04-12T08:22:33.373Z,43.39
2023-04-12T08:25:06.276Z,43.34
2023-04-12T08:27:39.133Z,43.36
2023-04-12T08:30:12.009Z,43.37
2023-04-12T08:32:45.192Z,43.34
2023-04-12T08:35:18.089Z,43.42
2023-04-12T08:37:51.003Z,43.41
2023-04-12T08:40:24.327Z,43.48
2023-04-12T08:42:57.015Z,43.48
2023-04-12T08:45:30.181Z,43.49
2023-04-12T08:48:03.355Z,43.58
2023-04-12T08:50:36.172Z,43.57
2023-04-12T08:53:13.005Z,43.52
2023-04-12T08:55:46.174Z,43.54
2023-04-12T08:58:19.218Z,43.54
2023-04-12T09:00:52.090Z,43.50
2023-04-12T09:03:25.516Z,43.50
2023-04-12T09:05:58.059Z,43.49
2023-04-12T09:08:31.225Z,43.48
2023-04-12T09:11:04.077Z,43.50
2023-04-12T09:13:40.175Z,43.21
2023-04-12T09:16:13.441Z,43.19
2023-04-12T09:18:46.380Z,42.56
2023-04-12T09:21:19.436Z,42.58
2023-04-12T09:23:52.099Z,42.69
2023-04-12T09:26:25.089Z,42.76
2023-04-12T09:28:58.078Z,42.76
2023-04-12T09:31:31.265Z,42.74
2023-04-12T09:34:04.118Z,42.72
2023-04-12T09:36:37.292Z,42.70
2023-04-12T09:39:10.087Z,42.69
2023-04-12T09:41:43.100Z,42.68
2023-04-12T09:44:30.406Z,42.69
2023-04-12T09:47:03.113Z,42.68
2023-04-12T09:49:36.651Z,42.64
2023-04-12T09:52:10.114Z,42.67
2023-04-12T09:54:43.148Z,42.63
2023-04-12T09:57:16.110Z,42.67
2023-04-12T09:59:49.486Z,42.61
2023-04-12T10:02:22.436Z,42.67
2023-04-12T10:04:55.378Z,42.72
2023-04-12T10:07:28.137Z,42.90
2023-04-12T10:10:01.253Z,42.90
2023-04-12T10:12:34.329Z,42.89
2023-04-12T10:15:07.412Z,43.02
2023-04-12T10:17:40.332Z,42.99
2023-04-12T10:20:13.724Z,42.93
2023-04-12T10:22:47.261Z,42.99
2023-04-12T10:25:20.528Z,43.00
2023-04-12T10:28:07.458Z,42.97
2023-04-12T10:30:40.469Z,43.00
2023-04-12T10:33:13.423Z,43.00
2023-04-12T10:35:46.482Z,42.99
2023-04-12T10:38:19.557Z,42.98
2023-04-12T10:40:53.480Z,43.02
2023-04-12T10:43:26.599Z,43.00
2023-04-12T10:45:59.215Z,42.97
2023-04-12T10:48:32.810Z,42.98
2023-04-12T10:51:06.499Z,42.97
2023-04-12T10:53:39.547Z,42.97
2023-04-12T10:56:12.545Z,42.97
2023-04-12T10:58:45.471Z,42.99
2023-04-12T11:01:19.041Z,43.00
2023-04-12T11:03:52.428Z,42.98
2023-04-12T11:06:27.775Z,42.98
2023-04-12T11:08:58.463Z,42.99
2023-04-12T11:11:31.380Z,42.96
2023-04-12T11:14:04.320Z,42.99
2023-04-12T11:16:37.432Z,42.96
2023-04-12T11:19:10.264Z,43.01
2023-04-12T11:21:43.595Z,43.02
2023-04-12T11:26:50.546Z,42.50
2023-04-12T11:29:23.478Z,42.52
2023-04-12T11:31:56.385Z,42.72
2023-04-12T11:34:29.404Z,42.76
2023-04-12T11:37:02.402Z,42.91
2023-04-12T11:39:35.482Z,42.91
2023-04-12T11:42:08.317Z,43.23
2023-04-12T11:44:56.055Z,43.23
2023-04-12T11:47:14.682Z,43.15
2023-04-12T11:49:47.629Z,43.23
2023-04-12T11:52:20.815Z,43.17
2023-04-12T11:54:54.533Z,43.23
2023-04-12T11:57:27.401Z,43.20
2023-04-12T12:00:00.566Z,43.22
2023-04-12T12:02:40.701Z,43.19
2023-04-12T12:05:06.927Z,43.19
2023-04-12T12:07:39.572Z,43.18
2023-04-12T12:10:16.418Z,43.19
2023-04-12T12:12:45.445Z,43.16
2023-04-12T12:15:18.332Z,43.23
2023-04-12T12:17:54.272Z,43.20
2023-04-12T12:20:27.595Z,43.16
2023-04-12T12:23:00.580Z,43.21
2023-04-12T12:25:33.446Z,43.20
2023-04-12T12:28:06.353Z,43.18
2023-04-12T12:30:39.349Z,43.22
2023-04-12T12:33:12.655Z,43.25
2023-04-12T12:35:45.667Z,43.26
2023-04-12T12:38:18.384Z,43.22
2023-04-12T12:40:51.364Z,43.20
2023-04-12T12:43:24.561Z,43.20
2023-04-12T12:45:57.618Z,43.20
2023-04-12T12:48:30.458Z,43.18
2023-04-12T12:51:03.394Z,43.16
2023-04-12T12:53:36.795Z,43.24
2023-04-12T12:56:09.368Z,43.16
2023-04-12T12:58:42.731Z,43.21
2023-04-12T13:01:15.536Z,43.24
2023-04-12T13:03:48.561Z,43.22
2023-04-12T13:06:21.799Z,43.22
2023-04-12T13:08:54.747Z,43.20
2023-04-12T13:11:27.551Z,43.26
2023-04-12T13:14:00.425Z,43.20
2023-04-12T13:16:33.728Z,43.22
2023-04-12T13:19:06.441Z,43.09
2023-04-12T13:21:39.539Z,43.10
2023-04-12T13:24:12.535Z,43.11
2023-04-12T13:26:45.692Z,43.09
2023-04-12T13:29:18.622Z,43.11
2023-04-12T13:31:51.505Z,43.10
2023-04-12T13:34:24.890Z,43.03
2023-04-12T13:36:58.787Z,43.08
2023-04-12T13:39:33.150Z,43.14
2023-04-12T13:42:04.778Z,43.12
2023-04-12T13:44:37.785Z,43.15
2023-04-12T13:47:10.662Z,43.12
2023-04-12T13:49:43.835Z,43.15
2023-04-12T13:54:59.821Z,43.08
2023-04-12T13:57:32.602Z,43.21
2023-04-12T14:00:05.608Z,43.26
2023-04-12T14:02:52.914Z,43.25
2023-04-12T14:05:25.880Z,43.24
2023-04-12T14:07:58.776Z,43.23
2023-04-12T14:10:32.029Z,43.23
2023-04-12T14:13:05.894Z,43.19
2023-04-12T14:15:38.651Z,43.17
2023-04-12T14:18:11.888Z,43.18
2023-04-12T14:20:44.916Z,43.19
2023-04-12T14:23:17.800Z,43.18
2023-04-12T14:25:50.864Z,43.19
2023-04-12T14:28:23.985Z,43.19
2023-04-12T14:30:57.806Z,43.18
2023-04-12T14:33:30.912Z,43.20
2023-04-12T14:36:03.979Z,43.21
2023-04-12T14:38:37.813Z,43.20
2023-04-12T14:41:10.956Z,43.19
2023-04-12T14:43:43.891Z,43.19
2023-04-12T14:46:16.942Z,43.17
2023-04-12T14:48:50.006Z,43.16
2023-04-12T14:51:23.645Z,43.13
2023-04-12T14:53:57.520Z,43.12
2023-04-12T14:56:31.275Z,43.17
2023-04-12T14:59:02.564Z,43.14
2023-04-12T15:01:35.792Z,43.19
2023-04-12T15:04:08.970Z,43.18
2023-04-12T15:06:42.022Z,43.18
2023-04-12T15:09:15.747Z,43.23
2023-04-12T15:11:48.783Z,43.11
2023-04-12T15:14:21.860Z,43.03
2023-04-12T15:16:54.855Z,43.04
2023-04-12T15:19:27.861Z,42.99
2023-04-12T15:22:00.613Z,42.67
2023-04-12T15:27:23.761Z,42.42
2023-04-12T15:29:56.606Z,42.18
2023-04-12T15:32:29.765Z,41.99
2023-04-12T15:35:04.602Z,41.82
2023-04-12T15:37:35.908Z,41.66
2023-04-12T15:40:08.626Z,41.83
2023-04-12T15:42:55.569Z,41.72
2023-04-12T15:45:28.957Z,41.54
2023-04-12T15:48:01.889Z,41.51
2023-04-12T15:50:34.780Z,41.53
2023-04-12T15:53:07.687Z,41.43
2023-04-12T15:55:40.961Z,41.61
2023-04-12T15:58:13.845Z,41.42
2023-04-12T16:00:46.786Z,41.90
2023-04-12T16:03:20.062Z,41.63
2023-04-12T16:05:52.678Z,40.71
2023-04-12T16:08:25.760Z,40.63
2023-04-12T16:11:12.759Z,41.17
2023-04-12T16:13:46.141Z,41.28
2023-04-12T16:16:18.730Z,41.11
2023-04-12T16:18:51.800Z,40.45
2023-04-12T16:21:24.986Z,40.39
2023-04-12T16:23:57.688Z,40.43
2023-04-12T16:26:30.774Z,40.36
2023-04-12T16:29:03.778Z,40.33
2023-04-12T16:31:36.979Z,40.16
2023-04-12T16:34:09.713Z,40.12
2023-04-12T16:36:42.722Z,40.18
2023-04-12T16:39:16.039Z,40.08
2023-04-12T16:41:48.719Z,40.06
2023-04-12T16:44:22.295Z,39.81
2023-04-12T16:46:56.129Z,39.77
2023-04-12T16:49:29.013Z,39.75
2023-04-12T16:52:02.050Z,39.67
2023-04-12T16:54:34.984Z,39.85
2023-04-12T16:57:07.838Z,39.92
2023-04-12T16:59:41.090Z,40.06
2023-04-12T17:02:14.172Z,40.04
2023-04-12T17:04:46.906Z,40.15
2023-04-12T17:07:19.737Z,40.33
2023-04-12T17:09:52.995Z,40.16
2023-04-12T17:12:26.026Z,39.97
2023-04-12T17:14:58.762Z,39.98
2023-04-12T17:17:31.906Z,40.00
2023-04-12T17:20:04.830Z,39.84
2023-04-12T17:22:37.889Z,40.06
2023-04-12T17:25:10.929Z,40.17
2023-04-12T17:27:44.052Z,40.20
2023-04-12T17:30:16.827Z,40.19
2023-04-12T17:32:49.972Z,40.07
2023-04-12T17:35:22.789Z,40.06
2023-04-12T17:37:55.793Z,40.01
2023-04-12T17:40:28.865Z,40.03
2023-04-12T17:43:01.957Z,39.98
2023-04-12T17:45:35.152Z,39.84
2023-04-12T17:48:08.245Z,39.92
2023-04-12T17:50:40.896Z,40.08
2023-04-12T17:53:13.936Z,39.74
2023-04-12T17:55:48.391Z,39.82
2023-04-12T17:58:19.997Z,39.76
2023-04-12T18:00:53.076Z,39.42
2023-04-12T18:03:26.027Z,39.38
2023-04-12T18:05:58.891Z,39.51
2023-04-12T18:08:32.057Z,39.58
2023-04-12T18:11:04.842Z,39.60
2023-04-12T18:13:38.127Z,39.60
2023-04-12T18:16:10.968Z,39.62
2023-04-12T18:18:43.955Z,39.54
2023-04-12T18:21:16.960Z,39.64
2023-04-12T18:23:50.222Z,39.53
2023-04-12T18:26:22.861Z,39.66
2023-04-12T18:28:56.038Z,39.67
2023-04-12T18:31:29.154Z,39.77
2023-04-12T18:34:01.914Z,39.67
2023-04-12T18:36:35.024Z,39.58
2023-04-12T18:39:07.907Z,39.46
2023-04-12T18:41:40.900Z,39.65
2023-04-12T18:44:14.223Z,39.51
2023-04-12T18:46:47.177Z,40.14
2023-04-12T18:49:23.943Z,40.21
2023-04-12T18:51:56.911Z,40.37
2023-04-12T18:54:30.069Z,40.50
2023-04-12T18:57:02.931Z,40.62
2023-04-12T18:59:36.237Z,40.74
2023-04-12T19:02:09.026Z,40.86
2023-04-12T19:04:42.262Z,40.88
2023-04-12T19:07:28.984Z,40.92
2023-04-12T19:10:01.929Z,40.99
2023-04-12T19:12:35.233Z,41.02
2023-04-12T19:15:08.183Z,41.04
2023-04-12T19:17:41.276Z,41.04
2023-04-12T19:20:14.072Z,41.07
2023-04-12T19:22:47.088Z,41.07
2023-04-12T19:25:20.131Z,41.16
2023-04-12T19:27:55.870Z,41.13
2023-04-12T19:30:29.284Z,41.20
2023-04-12T19:33:02.090Z,41.20
2023-04-12T19:35:35.108Z,41.20
2023-04-12T19:38:22.071Z,41.27
2023-04-12T19:40:57.998Z,41.32
2023-04-12T19:43:31.401Z,41.32
2023-04-12T19:46:04.993Z,41.34
2023-04-12T19:48:38.091Z,41.39
2023-04-12T19:51:11.446Z,41.42
2023-04-12T19:53:45.340Z,41.46
2023-04-12T19:56:18.354Z,41.46
2023-04-12T19:58:51.166Z,41.51
2023-04-12T20:01:24.165Z,41.54
2023-04-12T20:03:57.366Z,41.54
2023-04-12T20:06:30.096Z,41.53
2023-04-12T20:09:03.281Z,41.61
2023-04-12T20:11:36.110Z,41.61
2023-04-12T20:14:09.144Z,41.61
2023-04-12T20:16:42.166Z,41.61
2023-04-12T20:19:15.171Z,41.61
2023-04-12T20:21:48.325Z,41.62
2023-04-12T20:24:21.182Z,41.63
2023-04-12T20:27:08.117Z,41.63
2023-04-12T20:29:41.189Z,41.68
2023-04-12T20:32:14.180Z,41.68
2023-04-12T20:34:47.166Z,41.70
2023-04-12T20:37:20.161Z,41.74
2023-04-12T20:39:53.560Z,41.72
2023-04-12T20:42:27.200Z,41.71
2023-04-12T20:45:00.058Z,41.73
2023-04-12T20:47:33.227Z,41.73
2023-04-12T20:50:09.205Z,41.76
2023-04-12T20:52:42.225Z,41.77
2023-04-12T20:55:15.282Z,41.78
2023-04-12T20:57:49.270Z,41.80
2023-04-12T21:00:22.596Z,41.77
2023-04-12T21:02:56.170Z,41.79
2023-04-12T21:05:29.494Z,41.81
2023-04-12T21:08:02.179Z,41.82
2023-04-12T21:10:35.335Z,41.83
2023-04-12T21:13:08.283Z,41.86
2023-04-12T21:15:46.202Z,41.85
2023-04-12T21:18:24.530Z,41.86
2023-04-12T21:20:57.904Z,41.86
2023-04-12T21:23:31.268Z,41.43
2023-04-12T21:26:04.255Z,41.50
2023-04-12T21:28:37.272Z,41.81
2023-04-12T21:31:10.351Z,41.80
2023-04-12T21:33:43.653Z,41.80
2023-04-12T21:36:17.262Z,41.79
2023-04-12T21:38:50.544Z,41.84
2023-04-12T21:41:23.570Z,41.83
2023-04-12T21:43:57.418Z,41.81
2023-04-12T21:46:30.285Z,41.82
2023-04-12T21:49:03.471Z,41.91
2023-04-12T21:51:36.504Z,41.90
2023-04-12T21:54:09.441Z,41.85
2023-04-12T21:56:42.425Z,41.90
2023-04-12T21:59:15.330Z,41.84
2023-04-12T22:01:48.459Z,41.89
2023-04-12T22:04:21.612Z,41.99
2023-04-12T22:06:55.420Z,42.05
2023-04-12T22:09:28.543Z,42.03
2023-04-12T22:12:01.176Z,42.12
2023-04-12T22:14:34.324Z,42.13
2023-04-12T22:17:07.518Z,42.20
2023-04-12T22:19:40.358Z,42.21
2023-04-12T22:22:13.325Z,42.37
2023-04-12T22:24:46.384Z,42.46
2023-04-12T22:27:19.580Z,42.38
2023-04-12T22:29:52.595Z,42.40
2023-04-12T22:32:25.806Z,42.43
2023-04-12T22:35:08.337Z,42.39
2023-04-12T22:37:32.362Z,42.37
2023-04-12T22:40:05.624Z,42.50
2023-04-12T22:42:44.443Z,42.51
2023-04-12T22:45:17.606Z,42.45
2023-04-12T22:47:50.678Z,42.55
2023-04-12T22:50:23.552Z,42.67
2023-04-12T22:52:56.278Z,42.64
2023-04-12T22:55:29.494Z,42.60
2023-04-12T22:58:02.510Z,42.61
2023-04-12T23:00:35.368Z,42.68
2023-04-12T23:03:08.901Z,42.71
2023-04-12T23:05:42.257Z,42.78
2023-04-12T23:08:15.631Z,42.83
2023-04-12T23:10:48.302Z,42.78
2023-04-12T23:13:21.464Z,42.93
2023-04-12T23:15:54.412Z,42.90
2023-04-12T23:18:27.697Z,42.87
2023-04-12T23:21:00.261Z,42.99
2023-04-12T23:23:33.569Z,42.94
2023-04-12T23:26:06.611Z,43.00
2023-04-12T23:28:39.595Z,43.01
2023-04-12T23:31:12.638Z,43.00
2023-04-12T23:33:45.584Z,43.02
2023-04-12T23:36:18.485Z,43.00
2023-04-12T23:38:51.772Z,42.98
2023-04-12T23:41:24.641Z,43.02
2023-04-12T23:43:57.589Z,43.08
2023-04-12T23:46:30.853Z,43.15
2023-04-12T23:49:04.670Z,43.13
2023-04-12T23:51:37.614Z,43.12
2023-04-12T23:54:10.420Z,43.13
2023-04-12T23:56:43.635Z,43.17
2023-04-12T23:59:16.718Z,43.15
